TAR285 DTTA-LGAV
Flight info
| Callsign | TAR285 |
|---|---|
| Flight time | 1h 38m |
| Altitude | 37000 |
| Route | ICANI3C ICANI UB979 SUSIP DCT PININ DCT RUTOM/N0446F390 DCT ARA UY144 NEMES |
| Aircraft | B736/M-SDE2E3FGHIRWXY/LB1 |
Departure
| Time | 2026-05-04 12:33 |
|---|---|
| Airport | Tunis Carthage International Airport (DTTA) |
Arrival
| Time | 2026-05-04 14:11 |
|---|---|
| Airport | Athens Eleftherios Venizelos International Airport (LGAV) |
| Time | Latitude | Longitude | Altitude | Speed | Heading |
|---|---|---|---|---|---|
| 2026-05-04 11:56 | 36.84309 | 10.22064 | 29 ft | 0 kts | 102° |
| 2026-05-04 12:20 | 36.84309 | 10.22063 | 29 ft | 2 kts | 102° |
| 2026-05-04 12:20 | 36.84314 | 10.22032 | 29 ft | 4 kts | 100° |
| 2026-05-04 12:21 | 36.84318 | 10.21999 | 29 ft | 4 kts | 93° |
| 2026-05-04 12:21 | 36.84317 | 10.21966 | 29 ft | 4 kts | 71° |
| 2026-05-04 12:21 | 36.84306 | 10.21946 | 29 ft | 2 kts | 13° |
| 2026-05-04 12:21 | 36.84305 | 10.21945 | 29 ft | 4 kts | 13° |
| 2026-05-04 12:27 | 36.84306 | 10.21946 | 29 ft | 1 kts | 13° |
| 2026-05-04 12:27 | 36.84320 | 10.21950 | 29 ft | 4 kts | 13° |
| 2026-05-04 12:27 | 36.84354 | 10.21960 | 29 ft | 6 kts | 14° |
| 2026-05-04 12:27 | 36.84405 | 10.21978 | 29 ft | 9 kts | 22° |
| 2026-05-04 12:28 | 36.84461 | 10.22025 | 29 ft | 11 kts | 37° |
| 2026-05-04 12:28 | 36.84497 | 10.22110 | 29 ft | 12 kts | 83° |
| 2026-05-04 12:28 | 36.84492 | 10.22216 | 29 ft | 12 kts | 94° |
| 2026-05-04 12:28 | 36.84544 | 10.22276 | 29 ft | 12 kts | 8° |
| 2026-05-04 12:29 | 36.84626 | 10.22291 | 29 ft | 12 kts | 8° |
| 2026-05-04 12:29 | 36.84703 | 10.22310 | 29 ft | 11 kts | 14° |
| 2026-05-04 12:29 | 36.84779 | 10.22335 | 29 ft | 11 kts | 12° |
| 2026-05-04 12:29 | 36.84853 | 10.22356 | 29 ft | 11 kts | 13° |
| 2026-05-04 12:30 | 36.84924 | 10.22378 | 30 ft | 10 kts | 14° |
| 2026-05-04 12:30 | 36.84989 | 10.22370 | 29 ft | 10 kts | 314° |
| 2026-05-04 12:30 | 36.85029 | 10.22301 | 30 ft | 10 kts | 293° |
| 2026-05-04 12:30 | 36.85056 | 10.22223 | 30 ft | 10 kts | 293° |
| 2026-05-04 12:31 | 36.85087 | 10.22151 | 30 ft | 9 kts | 312° |
| 2026-05-04 12:31 | 36.85147 | 10.22152 | 30 ft | 9 kts | 19° |
| 2026-05-04 12:31 | 36.85206 | 10.22179 | 32 ft | 9 kts | 20° |
| 2026-05-04 12:31 | 36.85261 | 10.22211 | 31 ft | 9 kts | 43° |
| 2026-05-04 12:32 | 36.85256 | 10.22284 | 31 ft | 9 kts | 112° |
| 2026-05-04 12:32 | 36.84973 | 10.23138 | 28 ft | 106 kts | 112° |
| 2026-05-04 12:32 | 36.84642 | 10.24149 | 40 ft | 143 kts | 111° |
| 2026-05-04 12:33 | 36.84256 | 10.25351 | 264 ft | 155 kts | 110° |
| 2026-05-04 12:33 | 36.83865 | 10.26560 | 706 ft | 149 kts | 115° |
| 2026-05-04 12:33 | 36.83457 | 10.27792 | 900 ft | 160 kts | 115° |
| 2026-05-04 12:33 | 36.82937 | 10.29235 | 886 ft | 209 kts | 124° |
| 2026-05-04 12:34 | 36.81810 | 10.30345 | 1865 ft | 206 kts | 165° |
| 2026-05-04 12:34 | 36.80441 | 10.30417 | 2972 ft | 200 kts | 197° |
| 2026-05-04 12:34 | 36.79277 | 10.29438 | 3447 ft | 213 kts | 234° |
| 2026-05-04 12:34 | 36.78801 | 10.27683 | 4083 ft | 219 kts | 268° |
| 2026-05-04 12:35 | 36.79216 | 10.25852 | 4878 ft | 224 kts | 303° |
| 2026-05-04 12:35 | 36.80463 | 10.24714 | 5690 ft | 228 kts | 339° |
| 2026-05-04 12:35 | 36.81997 | 10.24164 | 6480 ft | 230 kts | 341° |
| 2026-05-04 12:35 | 36.83528 | 10.23626 | 7231 ft | 233 kts | 344° |
| 2026-05-04 12:36 | 36.85159 | 10.23605 | 7968 ft | 242 kts | 14° |
| 2026-05-04 12:36 | 36.86708 | 10.24637 | 8356 ft | 269 kts | 36° |
| 2026-05-04 12:36 | 36.88226 | 10.26189 | 8745 ft | 291 kts | 39° |
| 2026-05-04 12:36 | 36.89776 | 10.27864 | 9586 ft | 296 kts | 39° |
| 2026-05-04 12:37 | 36.91338 | 10.29565 | 10447 ft | 301 kts | 39° |
| 2026-05-04 12:37 | 36.92986 | 10.31351 | 10715 ft | 327 kts | 39° |
| 2026-05-04 12:37 | 36.94761 | 10.33261 | 11237 ft | 341 kts | 39° |
| 2026-05-04 12:37 | 36.96552 | 10.35183 | 12003 ft | 346 kts | 39° |
| 2026-05-04 12:38 | 36.98399 | 10.37159 | 12846 ft | 351 kts | 39° |
| 2026-05-04 12:38 | 37.00266 | 10.39152 | 13680 ft | 356 kts | 38° |
| 2026-05-04 12:38 | 37.02165 | 10.41177 | 14449 ft | 361 kts | 38° |
| 2026-05-04 12:38 | 37.04099 | 10.43239 | 15213 ft | 366 kts | 38° |
| 2026-05-04 12:39 | 37.06053 | 10.45323 | 16036 ft | 370 kts | 38° |
| 2026-05-04 12:39 | 37.08020 | 10.47421 | 16850 ft | 373 kts | 38° |
| 2026-05-04 12:39 | 37.10013 | 10.49549 | 17640 ft | 378 kts | 38° |
| 2026-05-04 12:39 | 37.12026 | 10.51699 | 18423 ft | 383 kts | 38° |
| 2026-05-04 12:40 | 37.14066 | 10.53880 | 19105 ft | 387 kts | 38° |
| 2026-05-04 12:40 | 37.16125 | 10.56084 | 19787 ft | 392 kts | 38° |
| 2026-05-04 12:40 | 37.18214 | 10.58321 | 20498 ft | 395 kts | 38° |
| 2026-05-04 12:40 | 37.20285 | 10.60540 | 21210 ft | 398 kts | 37° |
| 2026-05-04 12:41 | 37.22403 | 10.62811 | 21870 ft | 403 kts | 37° |
| 2026-05-04 12:41 | 37.24558 | 10.65120 | 22512 ft | 408 kts | 37° |
| 2026-05-04 12:41 | 37.26736 | 10.67450 | 23144 ft | 413 kts | 37° |
| 2026-05-04 12:41 | 37.28943 | 10.69809 | 23766 ft | 418 kts | 37° |
| 2026-05-04 12:42 | 37.31163 | 10.72185 | 24336 ft | 421 kts | 37° |
| 2026-05-04 12:42 | 37.33406 | 10.74588 | 24903 ft | 425 kts | 37° |
| 2026-05-04 12:42 | 37.35637 | 10.76982 | 25458 ft | 428 kts | 37° |
| 2026-05-04 12:42 | 37.37916 | 10.79429 | 26004 ft | 432 kts | 37° |
| 2026-05-04 12:43 | 37.40214 | 10.81899 | 26540 ft | 436 kts | 37° |
| 2026-05-04 12:43 | 37.42522 | 10.84381 | 27067 ft | 439 kts | 37° |
| 2026-05-04 12:43 | 37.44861 | 10.86899 | 27597 ft | 443 kts | 37° |
| 2026-05-04 12:43 | 37.47210 | 10.89437 | 28120 ft | 447 kts | 36° |
| 2026-05-04 12:44 | 37.49576 | 10.92000 | 28626 ft | 450 kts | 36° |
| 2026-05-04 12:44 | 37.51958 | 10.94585 | 29117 ft | 453 kts | 36° |
| 2026-05-04 12:44 | 37.54360 | 10.97193 | 29594 ft | 457 kts | 36° |
| 2026-05-04 12:44 | 37.56775 | 10.99819 | 30061 ft | 460 kts | 36° |
| 2026-05-04 12:45 | 37.59210 | 11.02469 | 30469 ft | 463 kts | 36° |
| 2026-05-04 12:45 | 37.61666 | 11.05143 | 30868 ft | 466 kts | 36° |
| 2026-05-04 12:45 | 37.64095 | 11.07790 | 31251 ft | 468 kts | 36° |
| 2026-05-04 12:45 | 37.66566 | 11.10485 | 31634 ft | 471 kts | 36° |
| 2026-05-04 12:46 | 37.69055 | 11.13199 | 31978 ft | 473 kts | 35° |
| 2026-05-04 12:46 | 37.71555 | 11.15922 | 32303 ft | 476 kts | 35° |
| 2026-05-04 12:46 | 37.74072 | 11.18665 | 32636 ft | 478 kts | 35° |
| 2026-05-04 12:46 | 37.76589 | 11.21414 | 33063 ft | 477 kts | 35° |
| 2026-05-04 12:47 | 37.79098 | 11.24157 | 33545 ft | 475 kts | 35° |
| 2026-05-04 12:47 | 37.81597 | 11.26892 | 33991 ft | 474 kts | 35° |
| 2026-05-04 12:47 | 37.84090 | 11.29622 | 34333 ft | 474 kts | 35° |
| 2026-05-04 12:47 | 37.86584 | 11.32355 | 34725 ft | 473 kts | 34° |
| 2026-05-04 12:48 | 37.89068 | 11.35083 | 35156 ft | 470 kts | 36° |
| 2026-05-04 12:48 | 37.91286 | 11.38107 | 35460 ft | 481 kts | 49° |
| 2026-05-04 12:48 | 37.92947 | 11.41823 | 35723 ft | 491 kts | 63° |
| 2026-05-04 12:48 | 37.93919 | 11.46004 | 36025 ft | 498 kts | 78° |
| 2026-05-04 12:49 | 37.94413 | 11.50358 | 36367 ft | 497 kts | 79° |
| 2026-05-04 12:49 | 37.94841 | 11.54704 | 36657 ft | 498 kts | 80° |
| 2026-05-04 12:49 | 37.95254 | 11.59059 | 36929 ft | 498 kts | 80° |
| 2026-05-04 12:49 | 37.95674 | 11.63411 | 37135 ft | 500 kts | 80° |
| 2026-05-04 12:50 | 37.96115 | 11.67814 | 37106 ft | 503 kts | 79° |
| 2026-05-04 12:50 | 37.97027 | 11.76557 | 37090 ft | 496 kts | 79° |
| 2026-05-04 12:51 | 37.97946 | 11.85170 | 37124 ft | 493 kts | 79° |
| 2026-05-04 12:51 | 37.98863 | 11.93750 | 37131 ft | 494 kts | 79° |
| 2026-05-04 12:52 | 37.99777 | 12.02403 | 37125 ft | 495 kts | 79° |
| 2026-05-04 12:52 | 38.00678 | 12.11025 | 37131 ft | 495 kts | 79° |
| 2026-05-04 12:53 | 38.01578 | 12.19704 | 37138 ft | 496 kts | 79° |
| 2026-05-04 12:53 | 38.02473 | 12.28395 | 37133 ft | 496 kts | 79° |
| 2026-05-04 12:54 | 38.03359 | 12.37076 | 37131 ft | 495 kts | 79° |
| 2026-05-04 12:54 | 38.04232 | 12.45681 | 37139 ft | 494 kts | 79° |
| 2026-05-04 12:55 | 38.05103 | 12.54317 | 37130 ft | 492 kts | 79° |
| 2026-05-04 12:55 | 38.05966 | 12.62926 | 37137 ft | 492 kts | 79° |
| 2026-05-04 12:56 | 38.06817 | 12.71542 | 37136 ft | 491 kts | 79° |
| 2026-05-04 12:56 | 38.07664 | 12.80148 | 37149 ft | 491 kts | 79° |
| 2026-05-04 12:57 | 38.08503 | 12.88743 | 37130 ft | 490 kts | 79° |
| 2026-05-04 12:57 | 38.09329 | 12.97260 | 37132 ft | 488 kts | 79° |
| 2026-05-04 12:58 | 38.10152 | 13.05821 | 37135 ft | 488 kts | 79° |
| 2026-05-04 12:58 | 38.10968 | 13.14367 | 37132 ft | 487 kts | 79° |
| 2026-05-04 12:59 | 38.11780 | 13.22887 | 37134 ft | 486 kts | 78° |
| 2026-05-04 12:59 | 38.12580 | 13.31426 | 37129 ft | 487 kts | 79° |
| 2026-05-04 13:00 | 38.13375 | 13.39984 | 37142 ft | 488 kts | 79° |
| 2026-05-04 13:00 | 38.14160 | 13.48493 | 37136 ft | 488 kts | 79° |
| 2026-05-04 13:01 | 38.14948 | 13.57070 | 37145 ft | 489 kts | 79° |
| 2026-05-04 13:01 | 38.15730 | 13.65652 | 37137 ft | 489 kts | 79° |
| 2026-05-04 13:02 | 38.16507 | 13.74254 | 37149 ft | 493 kts | 79° |
| 2026-05-04 13:02 | 38.17295 | 13.83023 | 37151 ft | 505 kts | 79° |
| 2026-05-04 13:03 | 38.18088 | 13.91953 | 37141 ft | 510 kts | 79° |
| 2026-05-04 13:03 | 38.18870 | 14.00881 | 37135 ft | 510 kts | 79° |
| 2026-05-04 13:04 | 38.19650 | 14.09864 | 37130 ft | 509 kts | 79° |
| 2026-05-04 13:04 | 38.20422 | 14.18821 | 37135 ft | 508 kts | 79° |
| 2026-05-04 13:05 | 38.21180 | 14.27677 | 37139 ft | 506 kts | 79° |
| 2026-05-04 13:05 | 38.21935 | 14.36574 | 37140 ft | 505 kts | 79° |
| 2026-05-04 13:06 | 38.22682 | 14.45458 | 37168 ft | 504 kts | 78° |
| 2026-05-04 13:06 | 38.23422 | 14.54338 | 37142 ft | 503 kts | 78° |
| 2026-05-04 13:07 | 38.24148 | 14.63140 | 37137 ft | 502 kts | 78° |
| 2026-05-04 13:07 | 38.24871 | 14.71978 | 37139 ft | 502 kts | 78° |
| 2026-05-04 13:08 | 38.25467 | 14.79327 | 37143 ft | 502 kts | 78° |
| 2026-05-04 13:08 | 38.26177 | 14.88162 | 37142 ft | 501 kts | 79° |
| 2026-05-04 13:09 | 38.26880 | 14.97001 | 37151 ft | 501 kts | 78° |
| 2026-05-04 13:09 | 38.27567 | 15.05715 | 37142 ft | 501 kts | 78° |
| 2026-05-04 13:10 | 38.28256 | 15.14540 | 37141 ft | 501 kts | 78° |
| 2026-05-04 13:10 | 38.28938 | 15.23356 | 37142 ft | 500 kts | 78° |
| 2026-05-04 13:11 | 38.29613 | 15.32176 | 37156 ft | 500 kts | 78° |
| 2026-05-04 13:11 | 38.30281 | 15.40991 | 37148 ft | 500 kts | 78° |
| 2026-05-04 13:12 | 38.30942 | 15.49808 | 37152 ft | 499 kts | 78° |
| 2026-05-04 13:12 | 38.31596 | 15.58614 | 37158 ft | 499 kts | 78° |
| 2026-05-04 13:13 | 38.32240 | 15.67371 | 37164 ft | 499 kts | 78° |
| 2026-05-04 13:13 | 38.32882 | 15.76200 | 37148 ft | 499 kts | 78° |
| 2026-05-04 13:14 | 38.33515 | 15.84995 | 37153 ft | 498 kts | 78° |
| 2026-05-04 13:14 | 38.34142 | 15.93796 | 37140 ft | 498 kts | 78° |
| 2026-05-04 13:15 | 38.34758 | 16.02528 | 37158 ft | 498 kts | 78° |
| 2026-05-04 13:15 | 38.35372 | 16.11342 | 37147 ft | 499 kts | 78° |
| 2026-05-04 13:16 | 38.35980 | 16.20158 | 37127 ft | 499 kts | 79° |
| 2026-05-04 13:16 | 38.36580 | 16.28974 | 37122 ft | 498 kts | 79° |
| 2026-05-04 13:17 | 38.37173 | 16.37768 | 37152 ft | 499 kts | 79° |
| 2026-05-04 13:17 | 38.37762 | 16.46590 | 37133 ft | 498 kts | 79° |
| 2026-05-04 13:18 | 38.38338 | 16.55345 | 37121 ft | 498 kts | 79° |
| 2026-05-04 13:18 | 38.38911 | 16.64130 | 37137 ft | 497 kts | 79° |
| 2026-05-04 13:19 | 38.39478 | 16.72929 | 37139 ft | 497 kts | 80° |
| 2026-05-04 13:19 | 38.40037 | 16.81711 | 37124 ft | 496 kts | 80° |
| 2026-05-04 13:20 | 38.40589 | 16.90493 | 37127 ft | 496 kts | 80° |
| 2026-05-04 13:20 | 38.41133 | 16.99261 | 37124 ft | 496 kts | 80° |
| 2026-05-04 13:21 | 38.41667 | 17.07962 | 37141 ft | 495 kts | 81° |
| 2026-05-04 13:21 | 38.42199 | 17.16724 | 37124 ft | 495 kts | 81° |
| 2026-05-04 13:22 | 38.42723 | 17.25472 | 37129 ft | 495 kts | 81° |
| 2026-05-04 13:22 | 38.43240 | 17.34220 | 37127 ft | 494 kts | 81° |
| 2026-05-04 13:23 | 38.43750 | 17.42963 | 37141 ft | 494 kts | 81° |
| 2026-05-04 13:23 | 38.44254 | 17.51706 | 37130 ft | 494 kts | 81° |
| 2026-05-04 13:24 | 38.44752 | 17.60456 | 37119 ft | 494 kts | 81° |
| 2026-05-04 13:24 | 38.45242 | 17.69194 | 37144 ft | 493 kts | 81° |
| 2026-05-04 13:25 | 38.45965 | 17.82295 | 37132 ft | 493 kts | 81° |
| 2026-05-04 13:25 | 38.46435 | 17.90961 | 37129 ft | 493 kts | 81° |
| 2026-05-04 13:26 | 38.46901 | 17.99681 | 37131 ft | 492 kts | 81° |
| 2026-05-04 13:26 | 38.47361 | 18.08397 | 37131 ft | 492 kts | 82° |
| 2026-05-04 13:27 | 38.47815 | 18.17116 | 37134 ft | 492 kts | 82° |
| 2026-05-04 13:27 | 38.48262 | 18.25848 | 37134 ft | 492 kts | 82° |
| 2026-05-04 13:28 | 38.48700 | 18.34522 | 37129 ft | 492 kts | 82° |
| 2026-05-04 13:28 | 38.49135 | 18.43250 | 37147 ft | 492 kts | 82° |
| 2026-05-04 13:29 | 38.49564 | 18.52008 | 37133 ft | 492 kts | 82° |
| 2026-05-04 13:29 | 38.49983 | 18.60681 | 37130 ft | 492 kts | 82° |
| 2026-05-04 13:30 | 38.50398 | 18.69426 | 37132 ft | 492 kts | 82° |
| 2026-05-04 13:30 | 38.50804 | 18.78114 | 37158 ft | 492 kts | 82° |
| 2026-05-04 13:31 | 38.51207 | 18.86843 | 37156 ft | 494 kts | 82° |
| 2026-05-04 13:31 | 38.51407 | 18.91220 | 37329 ft | 494 kts | 82° |
| 2026-05-04 13:31 | 38.51603 | 18.95589 | 37622 ft | 491 kts | 82° |
| 2026-05-04 13:32 | 38.51712 | 18.99960 | 37898 ft | 493 kts | 87° |
| 2026-05-04 13:32 | 38.51365 | 19.04333 | 38087 ft | 498 kts | 95° |
| 2026-05-04 13:32 | 38.50772 | 19.08698 | 38274 ft | 499 kts | 97° |
| 2026-05-04 13:32 | 38.50131 | 19.13047 | 38480 ft | 499 kts | 97° |
| 2026-05-04 13:33 | 38.49480 | 19.17386 | 38728 ft | 497 kts | 97° |
| 2026-05-04 13:33 | 38.48836 | 19.21728 | 38924 ft | 496 kts | 97° |
| 2026-05-04 13:33 | 38.48212 | 19.25997 | 39053 ft | 496 kts | 96° |
| 2026-05-04 13:33 | 38.47594 | 19.30340 | 39116 ft | 497 kts | 96° |
| 2026-05-04 13:34 | 38.46377 | 19.39036 | 39131 ft | 498 kts | 96° |
| 2026-05-04 13:34 | 38.45161 | 19.47724 | 39155 ft | 497 kts | 96° |
| 2026-05-04 13:35 | 38.43322 | 19.60726 | 39130 ft | 495 kts | 96° |
| 2026-05-04 13:36 | 38.42088 | 19.69378 | 39131 ft | 494 kts | 96° |
| 2026-05-04 13:36 | 38.40849 | 19.78013 | 39130 ft | 494 kts | 96° |
| 2026-05-04 13:37 | 38.39608 | 19.86616 | 39141 ft | 493 kts | 96° |
| 2026-05-04 13:37 | 38.38360 | 19.95222 | 39123 ft | 493 kts | 96° |
| 2026-05-04 13:38 | 38.37117 | 20.03753 | 39130 ft | 492 kts | 96° |
| 2026-05-04 13:38 | 38.35857 | 20.12356 | 38974 ft | 495 kts | 96° |
| 2026-05-04 13:38 | 38.35222 | 20.16678 | 38739 ft | 496 kts | 96° |
| 2026-05-04 13:39 | 38.34593 | 20.20932 | 38467 ft | 493 kts | 96° |
| 2026-05-04 13:39 | 38.33958 | 20.25221 | 38196 ft | 493 kts | 96° |
| 2026-05-04 13:39 | 38.33319 | 20.29528 | 37924 ft | 494 kts | 96° |
| 2026-05-04 13:39 | 38.32680 | 20.33834 | 37659 ft | 496 kts | 96° |
| 2026-05-04 13:40 | 38.32036 | 20.38152 | 37395 ft | 497 kts | 96° |
| 2026-05-04 13:40 | 38.31389 | 20.42484 | 37139 ft | 498 kts | 96° |
| 2026-05-04 13:40 | 38.30739 | 20.46825 | 36881 ft | 500 kts | 96° |
| 2026-05-04 13:40 | 38.30084 | 20.51181 | 36649 ft | 501 kts | 96° |
| 2026-05-04 13:41 | 38.29426 | 20.55548 | 36378 ft | 502 kts | 96° |
| 2026-05-04 13:41 | 38.28766 | 20.59914 | 36130 ft | 503 kts | 96° |
| 2026-05-04 13:41 | 38.28111 | 20.64242 | 35861 ft | 504 kts | 96° |
| 2026-05-04 13:42 | 38.26775 | 20.73025 | 35369 ft | 506 kts | 96° |
| 2026-05-04 13:42 | 38.26101 | 20.77438 | 35125 ft | 508 kts | 96° |
| 2026-05-04 13:42 | 38.25427 | 20.81847 | 34920 ft | 509 kts | 95° |
| 2026-05-04 13:42 | 38.24750 | 20.86249 | 34669 ft | 503 kts | 95° |
| 2026-05-04 13:43 | 38.24077 | 20.90599 | 34421 ft | 498 kts | 95° |
| 2026-05-04 13:43 | 38.23407 | 20.94934 | 34188 ft | 498 kts | 95° |
| 2026-05-04 13:43 | 38.22737 | 20.99278 | 33949 ft | 500 kts | 95° |
| 2026-05-04 13:43 | 38.22066 | 21.03625 | 33673 ft | 502 kts | 95° |
| 2026-05-04 13:44 | 38.21389 | 21.07988 | 33409 ft | 503 kts | 95° |
| 2026-05-04 13:44 | 38.20710 | 21.12346 | 33153 ft | 503 kts | 95° |
| 2026-05-04 13:44 | 38.20036 | 21.16661 | 32932 ft | 503 kts | 95° |
| 2026-05-04 13:44 | 38.19351 | 21.21025 | 32676 ft | 502 kts | 95° |
| 2026-05-04 13:45 | 38.18667 | 21.25382 | 32420 ft | 502 kts | 95° |
| 2026-05-04 13:45 | 38.17982 | 21.29733 | 32168 ft | 501 kts | 95° |
| 2026-05-04 13:45 | 38.17299 | 21.34070 | 31918 ft | 501 kts | 95° |
| 2026-05-04 13:45 | 38.16613 | 21.38412 | 31677 ft | 504 kts | 94° |
| 2026-05-04 13:46 | 38.15797 | 21.42775 | 31418 ft | 509 kts | 101° |
| 2026-05-04 13:46 | 38.14500 | 21.47000 | 31172 ft | 516 kts | 110° |
| 2026-05-04 13:46 | 38.12915 | 21.51099 | 30940 ft | 518 kts | 112° |
| 2026-05-04 13:46 | 38.11280 | 21.55181 | 30697 ft | 519 kts | 112° |
| 2026-05-04 13:47 | 38.09639 | 21.59256 | 30424 ft | 519 kts | 112° |
| 2026-05-04 13:47 | 38.08023 | 21.63296 | 30180 ft | 519 kts | 112° |
| 2026-05-04 13:47 | 38.06403 | 21.67391 | 29906 ft | 519 kts | 112° |
| 2026-05-04 13:47 | 38.04798 | 21.71486 | 29628 ft | 518 kts | 111° |
| 2026-05-04 13:48 | 38.03198 | 21.75584 | 29360 ft | 518 kts | 111° |
| 2026-05-04 13:48 | 38.01598 | 21.79691 | 28914 ft | 520 kts | 111° |
| 2026-05-04 13:48 | 37.99988 | 21.83824 | 28248 ft | 520 kts | 111° |
| 2026-05-04 13:48 | 37.98393 | 21.87905 | 27591 ft | 514 kts | 112° |
| 2026-05-04 13:49 | 37.96809 | 21.91954 | 26940 ft | 510 kts | 112° |
| 2026-05-04 13:49 | 37.95759 | 21.94632 | 26508 ft | 512 kts | 112° |
| 2026-05-04 13:49 | 37.94171 | 21.98678 | 25870 ft | 513 kts | 112° |
| 2026-05-04 13:49 | 37.92583 | 22.02713 | 25283 ft | 508 kts | 112° |
| 2026-05-04 13:50 | 37.91011 | 22.06699 | 24678 ft | 502 kts | 112° |
| 2026-05-04 13:50 | 37.89458 | 22.10635 | 24026 ft | 498 kts | 112° |
| 2026-05-04 13:50 | 37.87912 | 22.14550 | 23288 ft | 495 kts | 112° |
| 2026-05-04 13:50 | 37.86378 | 22.18434 | 22485 ft | 492 kts | 112° |
| 2026-05-04 13:51 | 37.84871 | 22.22240 | 21700 ft | 483 kts | 112° |
| 2026-05-04 13:51 | 37.83370 | 22.26025 | 20933 ft | 477 kts | 112° |
| 2026-05-04 13:51 | 37.81880 | 22.29783 | 20173 ft | 476 kts | 112° |
| 2026-05-04 13:51 | 37.80403 | 22.33509 | 19454 ft | 471 kts | 112° |
| 2026-05-04 13:52 | 37.77516 | 22.40762 | 18007 ft | 455 kts | 112° |
| 2026-05-04 13:52 | 37.76102 | 22.44317 | 17265 ft | 449 kts | 112° |
| 2026-05-04 13:52 | 37.74709 | 22.47812 | 16457 ft | 441 kts | 112° |
| 2026-05-04 13:53 | 37.73341 | 22.51236 | 15701 ft | 431 kts | 112° |
| 2026-05-04 13:53 | 37.72008 | 22.54572 | 14972 ft | 419 kts | 112° |
| 2026-05-04 13:53 | 37.70703 | 22.57828 | 14234 ft | 411 kts | 112° |
| 2026-05-04 13:54 | 37.68327 | 22.64235 | 12690 ft | 396 kts | 110° |
| 2026-05-04 13:54 | 37.67221 | 22.67404 | 11916 ft | 391 kts | 111° |
| 2026-05-04 13:54 | 37.65033 | 22.73664 | 11354 ft | 389 kts | 111° |
| 2026-05-04 13:55 | 37.64183 | 22.76875 | 11202 ft | 383 kts | 96° |
| 2026-05-04 13:55 | 37.64038 | 22.83635 | 10814 ft | 394 kts | 85° |
| 2026-05-04 13:55 | 37.64088 | 22.87115 | 10230 ft | 397 kts | 85° |
| 2026-05-04 13:56 | 37.64151 | 22.90560 | 9649 ft | 396 kts | 85° |
| 2026-05-04 13:56 | 37.64231 | 22.94022 | 9046 ft | 394 kts | 83° |
| 2026-05-04 13:56 | 37.64904 | 23.00661 | 7850 ft | 362 kts | 78° |
| 2026-05-04 13:57 | 37.65310 | 23.03705 | 7263 ft | 342 kts | 77° |
| 2026-05-04 13:57 | 37.65693 | 23.06601 | 6667 ft | 326 kts | 78° |
| 2026-05-04 13:58 | 37.66615 | 23.14347 | 6000 ft | 266 kts | 77° |
| 2026-05-04 13:58 | 37.67181 | 23.18826 | 6010 ft | 258 kts | 77° |
| 2026-05-04 13:58 | 37.67466 | 23.21127 | 6025 ft | 265 kts | 77° |
| 2026-05-04 13:59 | 37.67746 | 23.23426 | 6023 ft | 265 kts | 78° |
| 2026-05-04 13:59 | 37.68016 | 23.25691 | 6017 ft | 263 kts | 78° |
| 2026-05-04 13:59 | 37.68553 | 23.30240 | 6018 ft | 261 kts | 78° |
| 2026-05-04 14:00 | 37.68818 | 23.32504 | 6018 ft | 260 kts | 78° |
| 2026-05-04 14:00 | 37.69341 | 23.37017 | 6033 ft | 258 kts | 78° |
| 2026-05-04 14:00 | 37.69601 | 23.39262 | 6020 ft | 258 kts | 78° |
| 2026-05-04 14:01 | 37.69860 | 23.41504 | 6026 ft | 258 kts | 78° |
| 2026-05-04 14:01 | 37.70119 | 23.43750 | 6037 ft | 258 kts | 77° |
| 2026-05-04 14:01 | 37.70650 | 23.48350 | 6035 ft | 273 kts | 78° |
| 2026-05-04 14:02 | 37.70923 | 23.50731 | 6029 ft | 274 kts | 78° |
| 2026-05-04 14:02 | 37.71192 | 23.53108 | 6030 ft | 272 kts | 78° |
| 2026-05-04 14:02 | 37.71461 | 23.55469 | 6019 ft | 271 kts | 78° |
| 2026-05-04 14:02 | 37.71729 | 23.57824 | 5980 ft | 271 kts | 78° |
| 2026-05-04 14:03 | 37.72002 | 23.60222 | 5768 ft | 274 kts | 78° |
| 2026-05-04 14:03 | 37.72261 | 23.62527 | 5693 ft | 257 kts | 78° |
| 2026-05-04 14:03 | 37.72503 | 23.64689 | 5571 ft | 241 kts | 78° |
| 2026-05-04 14:03 | 37.72731 | 23.66714 | 5469 ft | 225 kts | 77° |
| 2026-05-04 14:04 | 37.73148 | 23.70408 | 5103 ft | 205 kts | 77° |
| 2026-05-04 14:04 | 37.73346 | 23.72166 | 4874 ft | 198 kts | 77° |
| 2026-05-04 14:04 | 37.73536 | 23.73852 | 4653 ft | 189 kts | 77° |
| 2026-05-04 14:05 | 37.74130 | 23.76816 | 4412 ft | 160 kts | 39° |
| 2026-05-04 14:05 | 37.74968 | 23.77702 | 4395 ft | 160 kts | 34° |
| 2026-05-04 14:05 | 37.75853 | 23.78594 | 4221 ft | 166 kts | 33° |
| 2026-05-04 14:06 | 37.76838 | 23.79541 | 4073 ft | 184 kts | 34° |
| 2026-05-04 14:06 | 37.77874 | 23.80531 | 3850 ft | 188 kts | 33° |
| 2026-05-04 14:06 | 37.78915 | 23.81524 | 3591 ft | 186 kts | 33° |
| 2026-05-04 14:06 | 37.79928 | 23.82491 | 3315 ft | 178 kts | 33° |
| 2026-05-04 14:07 | 37.80882 | 23.83401 | 3056 ft | 169 kts | 33° |
| 2026-05-04 14:07 | 37.81733 | 23.84213 | 2921 ft | 142 kts | 33° |
| 2026-05-04 14:07 | 37.82480 | 23.84925 | 2737 ft | 128 kts | 32° |
| 2026-05-04 14:07 | 37.83176 | 23.85585 | 2540 ft | 124 kts | 31° |
| 2026-05-04 14:08 | 37.83874 | 23.86244 | 2390 ft | 126 kts | 31° |
| 2026-05-04 14:08 | 37.84577 | 23.86897 | 2282 ft | 130 kts | 32° |
| 2026-05-04 14:08 | 37.85392 | 23.87664 | 2090 ft | 153 kts | 33° |
| 2026-05-04 14:08 | 37.86203 | 23.88442 | 1886 ft | 138 kts | 32° |
| 2026-05-04 14:09 | 37.87624 | 23.89801 | 1532 ft | 124 kts | 31° |
| 2026-05-04 14:09 | 37.88307 | 23.90464 | 1406 ft | 122 kts | 33° |
| 2026-05-04 14:10 | 37.89716 | 23.91795 | 1191 ft | 128 kts | 30° |
| 2026-05-04 14:10 | 37.90447 | 23.92454 | 960 ft | 129 kts | 36° |
| 2026-05-04 14:10 | 37.91140 | 23.93161 | 701 ft | 124 kts | 36° |
| 2026-05-04 14:10 | 37.91822 | 23.93801 | 528 ft | 121 kts | 40° |
| 2026-05-04 14:11 | 37.92500 | 23.94456 | 365 ft | 126 kts | 38° |
| 2026-05-04 14:11 | 37.93591 | 23.95506 | 284 ft | 46 kts | 37° |
| 2026-05-04 14:11 | 37.93709 | 23.95596 | 278 ft | 9 kts | 4° |
| 2026-05-04 14:12 | 37.93764 | 23.95563 | 282 ft | 8 kts | 308° |
| 2026-05-04 14:12 | 37.93783 | 23.95530 | 287 ft | 0 kts | 297° |
| 2026-05-04 14:13 | 37.93785 | 23.95510 | 293 ft | 8 kts | 263° |
| 2026-05-04 14:14 | 37.93747 | 23.95394 | 297 ft | 17 kts | 245° |
| 2026-05-04 14:14 | 37.93538 | 23.95176 | 297 ft | 23 kts | 216° |
| 2026-05-04 14:14 | 37.93401 | 23.95049 | 298 ft | 26 kts | 217° |
| 2026-05-04 14:15 | 37.93109 | 23.94775 | 301 ft | 24 kts | 217° |
| 2026-05-04 14:15 | 37.92843 | 23.94516 | 303 ft | 14 kts | 220° |
| 2026-05-04 14:16 | 37.92884 | 23.94358 | 300 ft | 12 kts | 307° |
| 2026-05-04 14:16 | 37.92922 | 23.94312 | 300 ft | 5 kts | 355° |
| 2026-05-04 14:17 | 37.92974 | 23.94356 | 300 ft | 0 kts | 39° |
| 2026-05-04 14:17 | 37.92975 | 23.94357 | 300 ft | 1 kts | 38° |
| 2026-05-04 14:18 | 37.92982 | 23.94365 | 303 ft | 1 kts | 37° |
| 2026-05-04 14:18 | 37.92987 | 23.94369 | 302 ft | 0 kts | 37° |